createdAt,value
2023-03-07T00:01:41.672Z,1.48
2023-03-07T00:04:10.787Z,1.40
2023-03-07T00:06:39.889Z,1.30
2023-03-07T00:09:08.794Z,1.58
2023-03-07T00:11:37.857Z,1.50
2023-03-07T00:14:09.674Z,2.60
2023-03-07T00:16:38.621Z,2.30
2023-03-07T00:19:08.960Z,1.42
2023-03-07T00:21:38.014Z,1.50
2023-03-07T00:24:07.341Z,1.45
2023-03-07T00:26:40.412Z,1.20
2023-03-07T00:29:12.260Z,4.38
2023-03-07T00:31:41.397Z,3.25
2023-03-07T00:34:10.361Z,3.65
2023-03-07T00:36:39.415Z,3.78
2023-03-07T00:39:09.193Z,2.28
2023-03-07T00:41:41.047Z,1.60
2023-03-07T00:44:10.230Z,0.90
2023-03-07T00:46:39.153Z,0.75
2023-03-07T00:49:08.568Z,0.80
2023-03-07T00:51:37.617Z,0.73
2023-03-07T00:54:09.859Z,0.80
2023-03-07T00:56:39.041Z,0.90
2023-03-07T00:59:09.307Z,0.98
2023-03-07T01:01:41.680Z,0.82
2023-03-07T01:04:11.107Z,0.85
2023-03-07T01:06:40.196Z,1.10
2023-03-07T01:09:13.898Z,1.40
2023-03-07T01:11:43.093Z,1.70
2023-03-07T01:14:12.675Z,1.20
2023-03-07T01:16:41.805Z,1.30
2023-03-07T01:19:14.058Z,0.80
2023-03-07T01:21:44.351Z,1.42
2023-03-07T01:24:17.141Z,0.95
2023-03-07T01:26:46.252Z,0.90
2023-03-07T01:29:24.397Z,1.35
2023-03-07T01:31:55.796Z,2.10
2023-03-07T01:34:33.677Z,1.10
2023-03-07T01:37:04.738Z,0.93
2023-03-07T01:39:34.619Z,0.95
2023-03-07T01:42:07.542Z,0.93
2023-03-07T01:45:04.644Z,0.70
2023-03-07T01:47:48.633Z,1.27
2023-03-07T01:50:19.281Z,1.50
2023-03-07T01:52:55.318Z,5.90
2023-03-07T01:55:28.273Z,9.17
2023-03-07T01:58:07.698Z,5.72
2023-03-07T02:00:39.335Z,5.20
2023-03-07T02:03:23.029Z,4.10
2023-03-07T02:05:56.698Z,2.80
2023-03-07T02:08:29.586Z,2.47
2023-03-07T02:10:58.712Z,2.00
2023-03-07T02:13:27.708Z,2.78
2023-03-07T02:15:58.701Z,4.47
2023-03-07T02:18:31.778Z,2.60
2023-03-07T02:21:20.689Z,4.57
2023-03-07T02:23:52.867Z,2.53
2023-03-07T02:26:41.980Z,5.30
2023-03-07T02:29:11.760Z,5.25
2023-03-07T02:31:42.201Z,5.88
2023-03-07T02:34:31.045Z,6.35
2023-03-07T02:37:21.565Z,4.32
2023-03-07T02:43:10.286Z,6.97
2023-03-07T02:45:41.775Z,5.97
2023-03-07T02:48:45.878Z,6.47
2023-03-07T02:54:39.831Z,18.40
2023-03-07T02:57:09.365Z,18.15
2023-03-07T02:59:38.576Z,12.43
2023-03-07T03:02:08.110Z,6.68
2023-03-07T03:04:37.197Z,4.10
2023-03-07T03:07:08.778Z,3.53
2023-03-07T03:09:37.848Z,2.28
2023-03-07T03:12:07.221Z,1.80
2023-03-07T03:14:40.309Z,1.95
2023-03-07T03:17:09.273Z,2.67
2023-03-07T03:19:40.585Z,3.10
2023-03-07T03:22:09.621Z,2.33
2023-03-07T03:24:43.519Z,1.33
2023-03-07T03:32:53.215Z,1.30
2023-03-07T03:35:22.256Z,1.50
2023-03-07T03:37:51.434Z,1.60
2023-03-07T03:40:21.727Z,1.60
2023-03-07T03:42:51.692Z,1.52
2023-03-07T03:45:22.364Z,4.50
2023-03-07T03:47:53.741Z,10.95
2023-03-07T03:50:25.706Z,3.38
2023-03-07T03:52:54.780Z,2.38
2023-03-07T03:55:23.764Z,6.72
2023-03-07T03:57:54.313Z,4.03
2023-03-07T04:00:28.994Z,3.72
2023-03-07T04:02:58.548Z,2.70
2023-03-07T04:05:27.796Z,4.47
2023-03-07T04:07:59.488Z,6.47
2023-03-07T04:10:28.526Z,6.47
2023-03-07T04:13:00.161Z,9.35
2023-03-07T04:15:29.327Z,13.40
2023-03-07T04:17:58.434Z,7.20
2023-03-07T04:20:27.451Z,7.32
2023-03-07T04:22:56.684Z,5.22
2023-03-07T04:25:25.794Z,5.72
2023-03-07T04:27:55.126Z,4.15
2023-03-07T04:30:24.400Z,3.10
2023-03-07T04:32:53.615Z,4.30
2023-03-07T04:35:22.631Z,4.72
2023-03-07T04:37:56.186Z,6.65
2023-03-07T04:40:25.231Z,9.90
2023-03-07T04:42:54.075Z,10.55
2023-03-07T04:45:23.276Z,6.68
2023-03-07T04:47:52.224Z,6.53
2023-03-07T04:50:21.890Z,9.30
2023-03-07T04:52:51.453Z,10.45
2023-03-07T04:55:21.027Z,21.45
2023-03-07T04:57:52.767Z,15.95
2023-03-07T05:00:22.071Z,21.85
2023-03-07T05:02:52.442Z,43.97
2023-03-07T05:05:21.656Z,33.50
2023-03-07T05:07:53.810Z,24.60
2023-03-07T05:10:23.787Z,41.03
2023-03-07T05:12:52.844Z,31.38
2023-03-07T05:15:21.828Z,18.50
2023-03-07T05:17:50.873Z,2.67
2023-03-07T05:20:20.279Z,2.05
2023-03-07T05:22:49.633Z,1.58
2023-03-07T05:26:03.935Z,1.30
2023-03-07T05:28:29.118Z,1.15
2023-03-07T05:31:10.572Z,2.17
2023-03-07T05:33:43.463Z,12.05
2023-03-07T05:36:12.818Z,19.52
2023-03-07T05:38:57.525Z,26.08
2023-03-07T05:41:26.562Z,20.08
2023-03-07T05:43:56.262Z,5.05
2023-03-07T05:46:25.673Z,7.47
2023-03-07T05:48:56.112Z,9.00
2023-03-07T05:51:26.412Z,13.90
2023-03-07T05:54:00.468Z,9.95
2023-03-07T05:56:32.660Z,13.82
2023-03-07T05:59:02.775Z,10.15
2023-03-07T06:01:32.151Z,5.50
2023-03-07T06:04:01.486Z,9.73
2023-03-07T06:06:30.444Z,13.20
2023-03-07T06:08:59.594Z,17.13
2023-03-07T06:11:29.109Z,26.58
2023-03-07T06:13:58.439Z,28.67
2023-03-07T06:16:27.587Z,28.08
2023-03-07T06:18:56.855Z,13.55
2023-03-07T06:21:25.785Z,20.50
2023-03-07T06:23:57.737Z,14.93
2023-03-07T06:26:26.774Z,10.32
2023-03-07T06:28:57.332Z,9.45
2023-03-07T06:31:30.960Z,14.13
2023-03-07T06:34:01.195Z,6.63
2023-03-07T06:36:30.339Z,1.77
2023-03-07T06:39:02.328Z,1.90
2023-03-07T06:41:31.340Z,2.60
2023-03-07T06:44:03.649Z,3.53
2023-03-07T06:46:35.063Z,6.15
2023-03-07T06:49:09.738Z,1.95
2023-03-07T06:51:39.528Z,10.95
2023-03-07T06:54:09.721Z,12.40
2023-03-07T06:56:38.974Z,22.27
2023-03-07T06:59:08.322Z,15.38
2023-03-07T07:01:40.305Z,27.25
2023-03-07T07:04:10.823Z,28.23
2023-03-07T07:06:42.552Z,22.20
2023-03-07T07:09:15.001Z,14.25
2023-03-07T07:11:44.448Z,9.40
2023-03-07T07:14:14.628Z,16.27
2023-03-07T07:16:44.287Z,23.55
2023-03-07T07:19:13.345Z,14.15
2023-03-07T07:21:43.365Z,5.93
2023-03-07T07:24:14.276Z,4.10
2023-03-07T07:26:43.367Z,6.47
2023-03-07T07:29:12.764Z,5.82
2023-03-07T07:31:42.225Z,1.70
2023-03-07T07:34:11.696Z,1.77
2023-03-07T07:36:40.656Z,1.35
2023-03-07T07:39:11.372Z,1.70
2023-03-07T07:41:43.671Z,1.50
2023-03-07T07:44:13.532Z,1.52
2023-03-07T07:46:56.465Z,2.97
2023-03-07T07:49:25.950Z,6.40
2023-03-07T07:51:55.475Z,3.85
2023-03-07T07:54:25.585Z,2.85
2023-03-07T07:56:55.175Z,5.60
2023-03-07T07:59:25.255Z,5.10
2023-03-07T08:01:54.532Z,4.20
2023-03-07T08:04:23.389Z,3.58
2023-03-07T08:06:53.184Z,3.92
2023-03-07T08:09:22.318Z,10.05
2023-03-07T08:11:52.081Z,7.32
2023-03-07T08:14:21.036Z,5.15
2023-03-07T08:16:49.989Z,3.45
2023-03-07T08:19:21.223Z,2.40
2023-03-07T08:21:50.333Z,3.25
2023-03-07T08:24:20.706Z,2.00
2023-03-07T08:26:52.378Z,1.60
2023-03-07T08:29:21.823Z,1.77
2023-03-07T08:31:52.702Z,1.63
2023-03-07T08:34:22.230Z,1.30
2023-03-07T08:36:55.264Z,1.45
2023-03-07T08:39:24.214Z,1.40
2023-03-07T08:41:55.984Z,1.60
2023-03-07T08:44:24.910Z,1.65
2023-03-07T08:46:56.917Z,1.30
2023-03-07T08:49:26.108Z,3.25
2023-03-07T08:51:55.074Z,1.75
2023-03-07T08:54:24.303Z,1.25
2023-03-07T08:56:53.208Z,1.45
2023-03-07T08:59:22.118Z,1.40
2023-03-07T09:01:51.522Z,1.48
2023-03-07T09:04:23.332Z,1.15
2023-03-07T09:06:55.227Z,1.40
2023-03-07T09:09:24.690Z,1.00
2023-03-07T09:11:53.953Z,1.50
2023-03-07T09:14:24.046Z,1.20
2023-03-07T09:16:53.117Z,1.30
2023-03-07T09:19:25.381Z,1.02
2023-03-07T09:21:54.412Z,1.50
2023-03-07T09:24:23.294Z,1.50
2023-03-07T09:26:53.695Z,1.10
2023-03-07T09:29:24.241Z,1.35
2023-03-07T09:31:53.455Z,1.35
2023-03-07T09:34:22.750Z,1.50
2023-03-07T09:36:53.073Z,2.05
2023-03-07T09:39:22.376Z,1.75
2023-03-07T09:42:20.315Z,1.50
2023-03-07T09:45:25.543Z,2.30
2023-03-07T09:48:35.150Z,2.15
2023-03-07T09:51:41.612Z,1.85
2023-03-07T09:54:23.851Z,1.67
2023-03-07T09:56:58.640Z,2.45
2023-03-07T09:59:33.443Z,2.53
2023-03-07T10:02:06.762Z,1.70
2023-03-07T10:05:14.024Z,1.70
2023-03-07T10:07:43.016Z,2.05
2023-03-07T10:10:28.154Z,1.60
2023-03-07T10:13:23.756Z,1.40
2023-03-07T10:15:58.897Z,3.40
2023-03-07T10:18:49.626Z,1.80
2023-03-07T10:21:39.608Z,1.40
2023-03-07T10:24:46.785Z,1.52
2023-03-07T10:27:17.565Z,1.40
2023-03-07T10:29:57.519Z,1.25
2023-03-07T10:32:42.487Z,1.30
2023-03-07T10:35:19.645Z,1.50
2023-03-07T10:38:27.176Z,1.50
2023-03-07T10:41:01.050Z,1.70
2023-03-07T10:43:36.767Z,1.30
2023-03-07T10:46:26.934Z,1.40
2023-03-07T10:49:17.738Z,1.48
2023-03-07T10:51:55.636Z,1.40
2023-03-07T10:54:30.923Z,1.17
2023-03-07T10:57:07.564Z,1.35
2023-03-07T10:59:38.621Z,1.33
2023-03-07T11:02:48.085Z,1.40
2023-03-07T11:05:36.951Z,1.40
2023-03-07T11:08:29.785Z,1.52
2023-03-07T11:11:02.820Z,1.23
2023-03-07T11:13:33.014Z,1.45
2023-03-07T11:16:31.573Z,1.30
2023-03-07T11:19:00.768Z,1.55
2023-03-07T11:21:35.743Z,1.60
2023-03-07T11:24:07.710Z,1.60
2023-03-07T11:26:45.629Z,1.88
2023-03-07T11:29:15.651Z,2.35
2023-03-07T11:31:54.296Z,2.65
2023-03-07T11:34:37.566Z,2.35
2023-03-07T11:37:25.312Z,2.17
2023-03-07T11:40:05.948Z,1.77
2023-03-07T11:42:40.027Z,1.67
2023-03-07T11:45:23.928Z,1.63
2023-03-07T11:48:02.467Z,1.50
2023-03-07T11:50:33.529Z,1.42
2023-03-07T11:53:29.180Z,1.40
2023-03-07T11:56:25.860Z,1.40
2023-03-07T11:59:13.318Z,1.35
2023-03-07T12:02:00.047Z,1.58
2023-03-07T12:04:40.946Z,1.60
2023-03-07T12:07:24.664Z,1.75
2023-03-07T12:10:05.358Z,1.90
2023-03-07T12:12:54.945Z,1.80
2023-03-07T12:15:51.416Z,1.42
2023-03-07T12:18:54.109Z,1.50
2023-03-07T12:21:38.080Z,1.50
2023-03-07T12:24:30.021Z,1.60
2023-03-07T12:27:09.693Z,1.67
2023-03-07T12:29:44.229Z,1.70
2023-03-07T12:32:35.169Z,1.70
2023-03-07T12:35:20.649Z,1.50
2023-03-07T12:38:10.940Z,1.60
2023-03-07T12:40:52.374Z,1.70
2023-03-07T12:43:43.691Z,1.55
2023-03-07T12:46:39.623Z,1.60
2023-03-07T12:49:54.619Z,1.35
2023-03-07T12:52:36.913Z,1.55
2023-03-07T12:55:22.152Z,1.50
2023-03-07T12:58:17.523Z,1.70
2023-03-07T13:01:04.811Z,1.75
2023-03-07T13:03:50.515Z,1.58
2023-03-07T13:06:22.670Z,1.60
2023-03-07T13:08:55.524Z,1.60
2023-03-07T13:11:27.946Z,1.50
2023-03-07T13:14:06.876Z,1.50
2023-03-07T13:16:48.677Z,1.48
2023-03-07T13:19:54.802Z,1.60
2023-03-07T13:22:23.791Z,1.60
2023-03-07T13:25:21.823Z,1.55
2023-03-07T13:28:04.316Z,1.45
2023-03-07T13:30:34.983Z,1.63
2023-03-07T13:33:25.246Z,1.92
2023-03-07T13:35:59.135Z,1.70
2023-03-07T13:38:47.477Z,1.77
2023-03-07T13:41:45.281Z,1.67
2023-03-07T13:47:44.013Z,1.70
2023-03-07T13:50:37.839Z,1.92
2023-03-07T13:53:16.980Z,1.90
2023-03-07T13:55:48.830Z,2.20
2023-03-07T13:58:34.128Z,2.00
2023-03-07T14:01:19.603Z,2.17
2023-03-07T14:03:56.773Z,2.00
2023-03-07T14:06:48.164Z,2.10
2023-03-07T14:09:36.495Z,1.73
2023-03-07T14:12:26.682Z,1.50
2023-03-07T14:15:23.020Z,1.60
2023-03-07T14:18:11.773Z,1.55
2023-03-07T14:21:00.347Z,1.20
2023-03-07T14:23:52.505Z,1.50
2023-03-07T14:26:27.752Z,1.40
2023-03-07T14:29:23.721Z,1.40
2023-03-07T14:31:57.657Z,1.80
2023-03-07T14:34:32.672Z,3.10
2023-03-07T14:37:10.064Z,2.38
2023-03-07T14:39:54.212Z,2.55
2023-03-07T14:42:55.918Z,2.00
2023-03-07T14:45:27.611Z,2.03
2023-03-07T14:48:09.070Z,1.70
2023-03-07T14:50:44.819Z,1.67
2023-03-07T14:53:22.706Z,2.05
2023-03-07T14:55:54.792Z,2.70
2023-03-07T14:58:52.370Z,2.83
2023-03-07T15:01:21.872Z,2.70
2023-03-07T15:03:56.773Z,2.20
2023-03-07T15:06:27.866Z,2.50
2023-03-07T15:08:59.283Z,1.85
2023-03-07T15:11:34.227Z,2.75
2023-03-07T15:14:12.412Z,3.47
2023-03-07T15:17:03.899Z,4.15
2023-03-07T15:19:39.349Z,4.35
2023-03-07T15:22:20.492Z,4.07
2023-03-07T15:24:52.698Z,3.35
2023-03-07T15:27:26.762Z,2.97
2023-03-07T15:29:56.701Z,3.00
2023-03-07T15:32:33.491Z,2.63
2023-03-07T15:37:36.139Z,2.20
2023-03-07T15:40:11.128Z,2.03
2023-03-07T15:43:07.952Z,1.50
2023-03-07T15:45:39.531Z,1.80
2023-03-07T15:48:24.440Z,1.65
2023-03-07T15:50:55.649Z,1.70
2023-03-07T15:53:44.190Z,1.98
2023-03-07T15:56:41.583Z,1.60
2023-03-07T15:59:42.790Z,2.30
2023-03-07T16:02:48.435Z,2.13
2023-03-07T16:05:26.068Z,1.63
2023-03-07T16:07:57.150Z,2.03
2023-03-07T16:10:30.674Z,2.20
2023-03-07T16:13:01.509Z,2.22
2023-03-07T16:15:31.190Z,1.95
2023-03-07T16:18:00.467Z,2.00
2023-03-07T16:20:30.133Z,2.00
2023-03-07T16:23:00.055Z,2.08
2023-03-07T16:25:32.590Z,2.10
2023-03-07T16:28:01.928Z,1.85
2023-03-07T16:30:34.288Z,1.80
2023-03-07T16:33:03.544Z,1.98
2023-03-07T16:35:32.521Z,1.90
2023-03-07T16:38:01.534Z,1.70
2023-03-07T16:40:30.896Z,1.98
2023-03-07T16:43:00.026Z,1.80
2023-03-07T16:45:33.381Z,1.80
2023-03-07T16:48:05.922Z,1.75
2023-03-07T16:50:34.891Z,1.73
2023-03-07T16:53:03.923Z,1.60
2023-03-07T16:55:32.855Z,1.95
2023-03-07T16:58:05.281Z,2.28
2023-03-07T17:00:34.744Z,2.28
2023-03-07T17:03:04.565Z,1.90
2023-03-07T17:05:33.621Z,2.17
2023-03-07T17:08:02.521Z,2.10
2023-03-07T17:10:31.674Z,1.77
2023-03-07T17:13:03.103Z,2.08
2023-03-07T17:15:32.562Z,1.40
2023-03-07T17:18:02.227Z,1.85
2023-03-07T17:20:32.085Z,1.85
2023-03-07T17:23:01.068Z,1.73
2023-03-07T17:25:30.113Z,2.05
2023-03-07T17:28:06.113Z,2.00
2023-03-07T17:30:35.454Z,2.80
2023-03-07T17:33:04.402Z,2.30
2023-03-07T17:35:33.313Z,2.58
2023-03-07T17:38:02.346Z,2.17
2023-03-07T17:40:31.221Z,2.40
2023-03-07T17:43:00.673Z,1.90
2023-03-07T17:45:29.564Z,2.28
2023-03-07T17:47:58.471Z,2.15
2023-03-07T17:50:30.534Z,1.70
2023-03-07T17:52:59.565Z,2.42
2023-03-07T17:55:28.980Z,1.90
2023-03-07T17:57:57.978Z,1.95
2023-03-07T18:00:26.939Z,2.45
2023-03-07T18:02:55.933Z,2.88
2023-03-07T18:05:26.766Z,2.28
2023-03-07T18:07:56.194Z,2.50
2023-03-07T18:10:25.407Z,2.70
2023-03-07T18:12:56.866Z,2.50
2023-03-07T18:15:28.812Z,2.60
2023-03-07T18:17:59.348Z,2.55
2023-03-07T18:20:30.458Z,2.35
2023-03-07T18:23:00.215Z,2.67
2023-03-07T18:25:29.882Z,2.35
2023-03-07T18:28:02.434Z,1.90
2023-03-07T18:30:31.459Z,2.10
2023-03-07T18:33:00.506Z,2.17
2023-03-07T18:35:29.487Z,2.03
2023-03-07T18:37:59.657Z,2.25
2023-03-07T18:40:28.737Z,2.20
2023-03-07T18:43:00.225Z,1.83
2023-03-07T18:45:29.301Z,2.00
2023-03-07T18:47:58.323Z,1.60
2023-03-07T18:50:27.368Z,2.00
2023-03-07T18:52:57.583Z,1.80
2023-03-07T18:55:26.582Z,1.90
2023-03-07T18:57:55.582Z,1.88
2023-03-07T19:00:24.684Z,2.25
2023-03-07T19:02:53.554Z,2.20
2023-03-07T19:05:22.556Z,1.92
2023-03-07T19:07:51.732Z,2.05
2023-03-07T19:10:20.874Z,1.80
2023-03-07T19:12:49.829Z,1.67
2023-03-07T19:15:18.955Z,2.13
2023-03-07T19:17:47.941Z,2.15
2023-03-07T19:20:16.815Z,1.80
2023-03-07T19:22:45.781Z,1.60
2023-03-07T19:25:14.974Z,1.90
2023-03-07T19:27:44.103Z,1.85
2023-03-07T19:30:13.657Z,1.23
2023-03-07T19:32:42.851Z,1.10
2023-03-07T19:35:11.791Z,1.20
2023-03-07T19:37:40.788Z,1.20
2023-03-07T19:40:10.250Z,0.88
2023-03-07T19:42:39.249Z,1.02
2023-03-07T19:45:08.751Z,0.88
2023-03-07T19:47:37.726Z,1.00
2023-03-07T19:50:07.041Z,0.98
2023-03-07T19:52:36.046Z,0.80
2023-03-07T19:55:05.086Z,0.90
2023-03-07T19:57:36.463Z,0.80
2023-03-07T20:00:06.743Z,0.77
2023-03-07T20:02:40.515Z,0.80
2023-03-07T20:05:10.024Z,0.80
2023-03-07T20:07:39.157Z,0.70
2023-03-07T20:10:08.440Z,0.52
2023-03-07T20:12:37.371Z,0.80
2023-03-07T20:15:07.068Z,0.60
2023-03-07T20:17:36.136Z,0.95
2023-03-07T20:20:08.712Z,0.60
2023-03-07T20:22:39.562Z,0.70
2023-03-07T20:25:09.603Z,0.70
2023-03-07T20:27:39.010Z,0.77
2023-03-07T20:30:08.526Z,0.50
2023-03-07T20:32:37.404Z,0.60
2023-03-07T20:35:06.730Z,0.70
2023-03-07T20:37:36.840Z,0.70
2023-03-07T20:40:09.365Z,0.60
2023-03-07T20:42:38.362Z,0.52
2023-03-07T20:45:07.985Z,0.60
2023-03-07T20:47:39.295Z,0.60
2023-03-07T20:50:12.431Z,0.82
2023-03-07T20:52:41.622Z,0.90
2023-03-07T20:55:10.781Z,0.70
2023-03-07T20:57:39.714Z,0.80
2023-03-07T21:00:09.566Z,0.90
2023-03-07T21:02:42.064Z,0.93
2023-03-07T21:05:11.217Z,0.90
2023-03-07T21:07:40.081Z,1.23
2023-03-07T21:10:13.052Z,1.00
2023-03-07T21:12:42.020Z,1.38
2023-03-07T21:15:11.703Z,0.80
2023-03-07T21:17:40.614Z,1.00
2023-03-07T21:20:10.891Z,0.98
2023-03-07T21:22:41.393Z,0.90
2023-03-07T21:25:10.915Z,1.40
2023-03-07T21:27:40.097Z,0.90
2023-03-07T21:30:09.641Z,0.80
2023-03-07T21:32:38.700Z,0.65
2023-03-07T21:35:09.784Z,0.80
2023-03-07T21:37:38.876Z,0.82
2023-03-07T21:40:08.292Z,0.77
2023-03-07T21:42:37.256Z,0.80
2023-03-07T21:45:06.661Z,0.85
2023-03-07T21:47:35.605Z,0.80
2023-03-07T21:50:04.928Z,0.60
2023-03-07T21:52:33.974Z,0.90
2023-03-07T21:55:03.091Z,0.90
2023-03-07T21:57:32.147Z,0.90
2023-03-07T22:00:01.048Z,1.10
2023-03-07T22:02:32.951Z,1.45
2023-03-07T22:05:02.055Z,1.30
2023-03-07T22:07:31.105Z,0.98
2023-03-07T22:10:00.111Z,0.63
2023-03-07T22:12:28.987Z,0.50
2023-03-07T22:14:58.035Z,0.70
2023-03-07T22:17:28.015Z,0.68
2023-03-07T22:19:57.050Z,0.57
2023-03-07T22:22:25.997Z,0.65
2023-03-07T22:24:55.034Z,0.50
2023-03-07T22:27:24.088Z,0.50
2023-03-07T22:29:53.374Z,0.52
2023-03-07T22:32:22.859Z,0.70
2023-03-07T22:34:53.019Z,0.57
2023-03-07T22:37:21.994Z,0.70
2023-03-07T22:39:50.855Z,0.63
2023-03-07T22:42:19.830Z,0.50
2023-03-07T22:44:48.696Z,1.13
2023-03-07T22:47:17.755Z,0.50
2023-03-07T22:49:48.512Z,0.50
2023-03-07T22:52:20.564Z,0.60
2023-03-07T22:54:49.644Z,0.40
2023-03-07T22:57:18.512Z,0.50
2023-03-07T22:59:50.052Z,0.55
2023-03-07T23:02:19.020Z,0.52
2023-03-07T23:04:48.010Z,0.52
2023-03-07T23:07:18.110Z,0.60
2023-03-07T23:09:47.130Z,0.40
2023-03-07T23:12:18.817Z,0.60
2023-03-07T23:14:47.773Z,0.60
2023-03-07T23:17:17.102Z,0.40
2023-03-07T23:19:46.182Z,0.47
2023-03-07T23:22:15.716Z,0.50
2023-03-07T23:24:44.986Z,0.60
2023-03-07T23:27:13.984Z,0.60
2023-03-07T23:29:42.853Z,0.43
2023-03-07T23:32:15.540Z,0.70
2023-03-07T23:34:44.637Z,0.50
2023-03-07T23:37:13.505Z,0.52
2023-03-07T23:39:42.518Z,0.50
2023-03-07T23:42:14.652Z,0.60
2023-03-07T23:47:40.586Z,0.52
2023-03-07T23:50:13.387Z,0.47
2023-03-07T23:52:46.018Z,0.63
2023-03-07T23:55:15.164Z,0.50
2023-03-07T23:57:44.161Z,0.60
